Time;durP1;ratioP1;P1;durP2;ratioP2;P2;SDS_P1;SDS_P2;PMS_P1;PMS_P2;Temp;Humidity;BMP_temperature;BMP_pressure;BME280_temperature;BME280_humidity;BME280_pressure;Samples;Min_cycle;Max_cycle;Signal;HPM_P1;HPM_P2
2021/06/06 00:00:16;;;;;;;42.28;27.63;;;16.80;99.90;;;;;;5057499;28;20031;-86
2021/06/06 00:02:43;;;;;;;42.35;26.25;;;16.80;99.90;;;;;;5058246;28;20116;-86
2021/06/06 00:05:10;;;;;;;45.63;26.95;;;16.80;99.90;;;;;;5058861;28;20044;-88
2021/06/06 00:07:36;;;;;;;42.30;25.30;;;16.80;99.90;;;;;;5059503;28;20021;-86
2021/06/06 00:10:04;;;;;;;38.88;23.90;;;16.80;99.90;;;;;;5058485;28;20600;-87
2021/06/06 00:12:30;;;;;;;41.97;25.83;;;16.80;99.90;;;;;;5057727;28;20095;-87
2021/06/06 00:14:56;;;;;;;41.75;26.15;;;16.80;99.90;;;;;;5058534;28;20478;-87
2021/06/06 00:17:22;;;;;;;46.22;26.52;;;16.70;99.90;;;;;;5059396;28;20150;-87
2021/06/06 00:19:48;;;;;;;42.80;26.58;;;16.70;99.90;;;;;;5056971;28;20048;-87
2021/06/06 00:22:13;;;;;;;44.60;25.98;;;16.50;99.90;;;;;;5058507;28;20482;-87
2021/06/06 00:24:39;;;;;;;42.92;26.20;;;16.50;99.90;;;;;;5058453;28;20060;-86
2021/06/06 00:27:07;;;;;;;40.63;26.40;;;16.60;99.90;;;;;;5057293;28;20032;-86
2021/06/06 00:29:33;;;;;;;43.17;26.65;;;16.60;99.90;;;;;;5057538;28;20029;-87
2021/06/06 00:31:58;;;;;;;41.95;26.42;;;16.60;99.90;;;;;;5059114;28;20025;-86
2021/06/06 00:34:25;;;;;;;41.03;26.55;;;16.70;99.90;;;;;;5058445;28;20493;-86
2021/06/06 00:36:52;;;;;;;43.42;26.27;;;16.60;99.90;;;;;;5059399;28;20390;-86
2021/06/06 00:39:18;;;;;;;37.70;24.65;;;16.60;99.90;;;;;;5057347;28;20048;-86
2021/06/06 00:41:46;;;;;;;39.08;24.67;;;16.70;99.90;;;;;;5059118;28;20025;-87
2021/06/06 00:44:12;;;;;;;40.30;25.43;;;16.70;99.90;;;;;;5057350;28;20021;-87
2021/06/06 00:46:38;;;;;;;39.20;25.25;;;16.60;99.90;;;;;;5057362;28;20032;-87
2021/06/06 00:49:05;;;;;;;36.80;23.23;;;16.60;99.90;;;;;;5058964;28;20033;-86
2021/06/06 00:51:36;;;;;;;38.83;23.58;;;16.60;99.90;;;;;;5059357;28;20037;-87
2021/06/06 00:54:19;;;;;;;36.55;23.60;;;16.50;99.90;;;;;;5074461;28;20017;-87
2021/06/06 00:56:48;;;;;;;36.47;24.17;;;16.50;99.90;;;;;;5074956;28;20090;-86
2021/06/06 00:59:18;;;;;;;37.17;23.08;;;16.50;99.90;;;;;;5057488;28;20031;-87
2021/06/06 01:01:44;;;;;;;35.63;23.50;;;16.50;99.90;;;;;;5058305;28;20036;-87
2021/06/06 01:04:11;;;;;;;34.85;22.83;;;16.60;99.90;;;;;;5057523;28;20448;-86
2021/06/06 01:06:44;;;;;;;35.05;23.02;;;16.60;99.90;;;;;;5061292;28;20074;-86
2021/06/06 01:09:11;;;;;;;38.05;22.92;;;16.60;99.90;;;;;;5060090;28;20025;-86
2021/06/06 01:12:15;;;;;;;39.67;25.25;;;16.60;99.90;;;;;;5060939;28;20017;-86
2021/06/06 01:15:16;;;;;;;36.53;22.73;;;16.60;99.90;;;;;;5078131;28;20029;-86
2021/06/06 01:18:02;;;;;;;40.55;25.45;;;16.50;99.90;;;;;;5076509;28;20029;-86
2021/06/06 01:21:00;;;;;;;38.42;23.92;;;16.50;99.90;;;;;;5061159;28;20021;-86
2021/06/06 01:23:38;;;;;;;33.53;22.90;;;16.50;99.90;;;;;;5061555;28;20074;-86
2021/06/06 01:26:28;;;;;;;37.35;23.45;;;16.60;99.90;;;;;;5078342;28;20097;-86
2021/06/06 01:29:08;;;;;;;37.22;23.77;;;16.60;99.90;;;;;;5061772;28;20036;-87
2021/06/06 01:31:36;;;;;;;39.42;24.77;;;16.60;99.90;;;;;;5060692;28;20029;-87
2021/06/06 01:34:03;;;;;;;36.90;23.77;;;16.50;99.90;;;;;;5061436;28;20021;-86
2021/06/06 01:36:42;;;;;;;34.63;21.25;;;16.50;99.90;;;;;;5060399;28;20040;-86
2021/06/06 01:39:47;;;;;;;34.13;21.65;;;16.50;99.90;;;;;;5059752;28;20503;-87
2021/06/06 01:42:18;;;;;;;30.08;20.95;;;16.40;99.90;;;;;;5023088;28;20553;-87
2021/06/06 01:44:47;;;;;;;31.83;20.17;;;16.50;99.90;;;;;;5055319;28;20042;-86
2021/06/06 01:47:21;;;;;;;28.63;18.75;;;16.50;99.90;;;;;;5062317;28;20021;-86
2021/06/06 01:49:58;;;;;;;28.45;19.67;;;16.50;99.90;;;;;;5059780;28;20036;-88
2021/06/06 01:52:29;;;;;;;26.88;18.45;;;16.50;99.90;;;;;;5060466;28;20485;-87
2021/06/06 01:54:57;;;;;;;24.98;17.08;;;16.50;99.90;;;;;;5061060;28;20029;-87
2021/06/06 01:57:24;;;;;;;24.92;17.55;;;16.50;99.90;;;;;;5061396;28;20400;-87
2021/06/06 01:59:53;;;;;;;26.50;17.13;;;16.40;99.90;;;;;;5061165;28;20020;-87
2021/06/06 02:02:20;;;;;;;25.88;17.80;;;16.40;99.90;;;;;;5060790;28;20025;-87
2021/06/06 02:04:47;;;;;;;27.40;17.65;;;16.40;99.90;;;;;;5062550;28;20025;-87
2021/06/06 02:07:18;;;;;;;25.55;17.63;;;16.40;99.90;;;;;;5062815;28;20123;-86
2021/06/06 02:09:52;;;;;;;25.70;18.10;;;16.40;99.90;;;;;;5060526;28;20093;-87
2021/06/06 02:12:18;;;;;;;25.67;18.48;;;16.40;99.90;;;;;;5061344;28;20088;-88
2021/06/06 02:14:46;;;;;;;24.08;17.45;;;16.40;99.90;;;;;;5062165;28;20028;-87
2021/06/06 02:17:29;;;;;;;28.17;18.27;;;16.50;99.90;;;;;;5061872;28;20025;-87
2021/06/06 02:19:55;;;;;;;25.92;17.05;;;16.40;99.90;;;;;;5061443;28;20029;-87
2021/06/06 02:22:21;;;;;;;29.17;19.90;;;16.40;99.90;;;;;;5062824;28;20024;-86
2021/06/06 02:24:47;;;;;;;31.20;19.27;;;16.30;99.90;;;;;;5062672;28;20025;-86
2021/06/06 02:27:20;;;;;;;29.42;19.48;;;16.30;99.90;;;;;;5062692;28;20028;-86
2021/06/06 02:30:17;;;;;;;27.02;18.98;;;16.40;99.90;;;;;;5059347;28;20037;-87
2021/06/06 02:33:00;;;;;;;29.13;18.70;;;16.40;99.90;;;;;;5078893;28;20036;-87
2021/06/06 02:35:39;;;;;;;30.17;18.40;;;16.40;99.90;;;;;;5061538;28;20035;-87
2021/06/06 02:38:08;;;;;;;29.83;18.95;;;16.40;99.90;;;;;;5061670;28;20032;-87
2021/06/06 02:40:41;;;;;;;28.00;18.95;;;16.50;99.90;;;;;;5061379;28;20028;-87
2021/06/06 02:43:22;;;;;;;29.00;19.58;;;16.40;99.90;;;;;;5079124;28;20021;-87
2021/06/06 02:45:51;;;;;;;30.33;19.05;;;16.50;99.90;;;;;;5062594;28;20124;-87
2021/06/06 02:48:21;;;;;;;31.17;20.30;;;16.40;99.90;;;;;;5063799;28;20093;-87
2021/06/06 02:50:48;;;;;;;30.63;19.40;;;16.40;99.90;;;;;;5063540;28;20044;-86
2021/06/06 02:53:22;;;;;;;28.23;19.17;;;16.30;99.90;;;;;;5063651;28;20055;-87
2021/06/06 02:55:58;;;;;;;29.70;19.08;;;16.30;99.90;;;;;;5063846;28;20028;-86
2021/06/06 02:58:39;;;;;;;28.63;19.38;;;16.30;99.90;;;;;;5061552;28;20493;-86
2021/06/06 03:01:11;;;;;;;28.50;18.67;;;16.30;99.90;;;;;;5060560;28;20025;-87
2021/06/06 03:03:39;;;;;;;28.02;19.52;;;16.20;99.90;;;;;;5063339;28;20025;-87
2021/06/06 03:06:11;;;;;;;28.10;18.37;;;16.20;99.90;;;;;;5062597;28;20025;-87
2021/06/06 03:08:37;;;;;;;29.80;18.48;;;16.30;99.90;;;;;;5055109;28;20021;-87
2021/06/06 03:11:07;;;;;;;30.73;19.90;;;16.30;99.90;;;;;;5052640;28;20446;-86
2021/06/06 03:13:50;;;;;;;30.00;19.27;;;16.30;99.90;;;;;;5051794;28;20245;-86
2021/06/06 03:16:18;;;;;;;29.17;19.77;;;16.30;99.90;;;;;;5053356;28;20040;-87
2021/06/06 03:18:47;;;;;;;25.65;18.38;;;16.30;99.90;;;;;;5051375;28;20029;-87
2021/06/06 03:21:17;;;;;;;;;;;16.30;99.90;;;;;;5051424;28;20474;-87
2021/06/06 03:23:53;;;;;;;30.25;19.52;;;16.30;99.90;;;;;;5051522;28;19905;-87
2021/06/06 03:26:19;;;;;;;29.83;20.70;;;16.30;99.90;;;;;;5051569;28;20454;-87
2021/06/06 03:28:45;;;;;;;30.70;21.25;;;16.30;99.90;;;;;;5051105;28;20111;-87
2021/06/06 03:31:20;;;;;;;29.90;21.33;;;16.30;99.90;;;;;;5050696;28;20102;-87
2021/06/06 03:33:53;;;;;;;31.25;21.42;;;16.30;99.90;;;;;;5052545;28;20424;-87
2021/06/06 03:36:26;;;;;;;31.15;20.65;;;16.30;99.90;;;;;;5067926;28;20029;-87
2021/06/06 03:38:53;;;;;;;36.05;23.00;;;16.30;99.90;;;;;;5052093;28;20047;-87
2021/06/06 03:41:19;;;;;;;32.30;21.88;;;16.20;99.90;;;;;;5050903;28;20556;-87
2021/06/06 03:43:44;;;;;;;38.50;23.17;;;16.20;99.90;;;;;;5051161;28;20053;-87
2021/06/06 03:46:10;;;;;;;32.05;23.10;;;16.20;99.90;;;;;;5052492;28;20067;-87
2021/06/06 03:48:36;;;;;;;33.88;23.25;;;16.10;99.90;;;;;;5051022;28;20037;-87
2021/06/06 03:51:02;;;;;;;30.88;21.77;;;16.00;99.90;;;;;;5051520;28;20070;-87
2021/06/06 03:53:28;;;;;;;31.00;21.90;;;16.10;99.90;;;;;;5052015;28;20029;-87
2021/06/06 03:55:54;;;;;;;33.22;22.52;;;16.20;99.90;;;;;;5050810;28;20508;-87
2021/06/06 03:58:21;;;;;;;32.33;22.20;;;16.20;99.90;;;;;;5050835;28;20031;-87
2021/06/06 04:00:49;;;;;;;33.80;21.92;;;16.20;99.90;;;;;;5050086;28;20020;-87
2021/06/06 04:03:16;;;;;;;33.92;23.92;;;16.10;99.90;;;;;;5050726;28;20421;-87
2021/06/06 04:05:43;;;;;;;36.20;23.70;;;16.10;99.90;;;;;;5050582;28;20021;-87
2021/06/06 04:08:09;;;;;;;37.92;25.20;;;16.10;99.90;;;;;;5050763;28;20021;-87
2021/06/06 04:10:36;;;;;;;40.25;25.52;;;16.00;99.90;;;;;;5051375;28;20036;-87
2021/06/06 04:13:02;;;;;;;37.60;25.58;;;16.10;99.90;;;;;;5050179;28;20145;-87
2021/06/06 04:15:28;;;;;;;43.33;27.08;;;16.00;99.90;;;;;;5050814;28;20116;-87
2021/06/06 04:17:54;;;;;;;41.78;26.35;;;16.00;99.90;;;;;;5050549;28;20115;-87
2021/06/06 04:20:23;;;;;;;40.67;26.95;;;16.10;99.90;;;;;;5051136;28;20025;-87
2021/06/06 04:22:48;;;;;;;43.97;27.05;;;16.10;99.90;;;;;;5050547;28;20013;-87
2021/06/06 04:25:21;;;;;;;48.78;28.35;;;16.10;99.90;;;;;;5067085;28;20082;-87
2021/06/06 04:27:47;;;;;;;51.70;30.60;;;16.10;99.90;;;;;;5051777;28;20075;-87
2021/06/06 04:30:13;;;;;;;47.85;29.08;;;16.00;99.90;;;;;;5049936;28;20028;-87
2021/06/06 04:32:39;;;;;;;54.38;29.33;;;16.00;99.90;;;;;;5052206;28;20525;-87
2021/06/06 04:35:06;;;;;;;46.42;29.38;;;16.00;99.90;;;;;;5050364;28;20029;-87
2021/06/06 04:37:31;;;;;;;48.92;30.42;;;16.10;99.90;;;;;;5050241;28;20029;-87
2021/06/06 04:39:57;;;;;;;46.97;29.33;;;16.00;99.90;;;;;;5051781;28;20043;-87
2021/06/06 04:42:23;;;;;;;45.72;27.98;;;16.10;99.90;;;;;;5054264;28;20025;-87
2021/06/06 04:44:49;;;;;;;46.28;28.77;;;16.10;99.90;;;;;;5054357;28;20032;-87
2021/06/06 04:47:16;;;;;;;47.42;28.20;;;16.10;99.90;;;;;;5054227;28;20028;-87
2021/06/06 04:49:44;;;;;;;43.35;27.48;;;16.10;99.90;;;;;;5053518;28;20037;-87
2021/06/06 04:52:12;;;;;;;46.97;27.42;;;16.10;99.90;;;;;;5054180;28;20035;-87
2021/06/06 04:54:38;;;;;;;45.15;27.58;;;16.10;99.90;;;;;;5054032;28;20025;-87
2021/06/06 04:57:06;;;;;;;44.28;27.65;;;16.10;99.90;;;;;;5054171;28;20401;-87
2021/06/06 04:59:35;;;;;;;45.35;27.73;;;16.10;99.90;;;;;;5054756;28;20509;-87
2021/06/06 05:02:02;;;;;;;46.15;28.30;;;16.10;99.90;;;;;;5054983;28;20044;-87
2021/06/06 05:04:27;;;;;;;44.53;28.08;;;16.10;99.90;;;;;;5053979;28;20496;-87
2021/06/06 05:06:53;;;;;;;44.65;27.55;;;16.10;99.90;;;;;;5053977;28;20044;-87
2021/06/06 05:09:18;;;;;;;44.60;26.85;;;16.10;99.90;;;;;;5053316;28;20036;-87
2021/06/06 05:11:44;;;;;;;45.20;28.35;;;16.20;99.90;;;;;;5053734;28;20048;-87
2021/06/06 05:14:10;;;;;;;44.88;28.73;;;16.10;99.90;;;;;;5053696;28;20029;-87
2021/06/06 05:16:35;;;;;;;51.72;28.98;;;16.10;99.90;;;;;;5055167;28;20025;-87
2021/06/06 05:19:01;;;;;;;45.35;28.85;;;16.20;99.90;;;;;;5053278;28;20032;-87
2021/06/06 05:21:29;;;;;;;48.50;27.85;;;16.20;99.90;;;;;;5053602;28;20397;-87
2021/06/06 05:23:55;;;;;;;47.80;28.65;;;16.10;99.90;;;;;;5053665;28;20025;-87
2021/06/06 05:26:21;;;;;;;48.38;27.90;;;16.20;99.90;;;;;;5053614;28;20029;-87
2021/06/06 05:28:47;;;;;;;47.70;29.27;;;16.20;99.90;;;;;;5070182;28;20477;-87
2021/06/06 05:31:15;;;;;;;46.20;28.05;;;16.10;99.90;;;;;;5053018;28;20025;-87
2021/06/06 05:33:41;;;;;;;46.65;28.55;;;16.10;99.90;;;;;;5053271;28;20032;-87
2021/06/06 05:36:07;;;;;;;48.55;27.73;;;16.10;99.90;;;;;;5070063;28;20095;-87
2021/06/06 05:38:33;;;;;;;48.53;28.73;;;16.10;99.90;;;;;;5053206;28;20033;-87
2021/06/06 05:41:00;;;;;;;50.25;29.30;;;16.20;99.90;;;;;;5054864;28;20091;-87
2021/06/06 05:43:26;;;;;;;48.33;27.60;;;16.20;99.90;;;;;;5054531;28;20040;-87
2021/06/06 05:45:53;;;;;;;47.15;28.25;;;16.20;99.90;;;;;;5054339;28;20032;-87
2021/06/06 05:48:19;;;;;;;48.08;28.15;;;16.20;99.90;;;;;;5052993;28;20045;-87
2021/06/06 05:50:50;;;;;;;53.00;29.85;;;16.20;99.90;;;;;;5052402;28;20029;-87
2021/06/06 05:53:16;;;;;;;47.20;27.58;;;16.20;99.90;;;;;;5054252;28;20032;-87
2021/06/06 05:55:44;;;;;;;45.78;26.52;;;16.20;99.90;;;;;;5052991;28;20033;-87
2021/06/06 05:58:11;;;;;;;49.85;27.98;;;16.20;99.90;;;;;;5052816;28;20029;-87
2021/06/06 06:00:40;;;;;;;48.45;26.73;;;16.20;99.90;;;;;;5052391;28;20029;-87
2021/06/06 06:03:06;;;;;;;;;;;16.20;99.90;;;;;;5053295;28;20032;-87
2021/06/06 06:05:33;;;;;;;41.63;25.90;;;16.30;99.90;;;;;;5052937;28;19912;-87
2021/06/06 06:08:10;;;;;;;46.35;26.75;;;16.20;99.90;;;;;;5052624;28;20061;-87
2021/06/06 06:10:36;;;;;;;48.03;26.85;;;16.20;99.90;;;;;;5052167;28;20029;-87
2021/06/06 06:13:02;;;;;;;42.20;26.25;;;16.20;99.90;;;;;;5052830;28;20493;-87
2021/06/06 06:15:28;;;;;;;50.78;29.27;;;16.20;99.90;;;;;;5052777;28;20033;-87
2021/06/06 06:17:53;;;;;;;48.17;28.00;;;16.20;99.90;;;;;;5053135;28;20021;-87
2021/06/06 06:20:21;;;;;;;45.47;28.25;;;16.20;99.90;;;;;;5054252;28;20044;-87
2021/06/06 06:22:46;;;;;;;49.00;28.30;;;16.20;99.90;;;;;;5054353;28;20048;-87
2021/06/06 06:25:14;;;;;;;43.78;25.45;;;16.20;99.90;;;;;;5052701;28;20440;-87
2021/06/06 06:27:40;;;;;;;45.25;27.55;;;16.30;99.90;;;;;;5053896;28;20527;-87
2021/06/06 06:30:08;;;;;;;44.63;26.23;;;16.20;99.90;;;;;;5053330;28;20021;-87
2021/06/06 06:39:37;;;;;;;44.22;27.13;;;16.20;99.90;;;;;;5031025;28;20076;-86
2021/06/06 06:42:04;;;;;;;43.00;26.45;;;16.20;99.90;;;;;;5014708;28;20052;-86
2021/06/06 06:44:29;;;;;;;43.88;26.40;;;16.20;99.90;;;;;;5041340;28;20067;-86
2021/06/06 06:46:55;;;;;;;45.05;26.95;;;16.20;99.90;;;;;;5054382;28;20478;-86
2021/06/06 06:49:22;;;;;;;41.40;25.88;;;16.20;99.90;;;;;;5051850;28;20482;-86
2021/06/06 06:51:47;;;;;;;44.85;26.55;;;16.30;99.90;;;;;;5052210;28;20394;-86
2021/06/06 06:54:13;;;;;;;39.38;25.80;;;16.30;99.90;;;;;;5052291;28;20043;-86
2021/06/06 06:56:38;;;;;;;41.75;25.73;;;16.30;99.90;;;;;;5052128;28;20021;-87
2021/06/06 07:02:29;;;;;;;62.08;32.28;;;16.30;99.90;;;;;;5030253;28;20047;-86
2021/06/06 07:04:54;;;;;;;72.07;36.97;;;16.30;99.90;;;;;;5051610;28;20024;-86
2021/06/06 07:07:20;;;;;;;79.43;41.33;;;16.20;99.90;;;;;;5053116;28;20025;-86
2021/06/06 07:09:45;;;;;;;80.18;39.45;;;16.10;99.90;;;;;;5052468;28;20397;-86
2021/06/06 07:12:11;;;;;;;80.15;40.03;;;16.10;99.90;;;;;;5068354;28;20032;-86
2021/06/06 07:14:37;;;;;;;77.57;39.95;;;16.10;99.90;;;;;;5052812;28;20029;-87
2021/06/06 07:17:03;;;;;;;79.53;39.30;;;16.20;99.90;;;;;;5051469;28;20032;-86
2021/06/06 07:19:29;;;;;;;77.65;38.10;;;16.10;99.90;;;;;;5051174;28;20074;-86
2021/06/06 07:21:55;;;;;;;79.35;37.75;;;16.10;99.90;;;;;;5052705;28;20095;-86
2021/06/06 07:24:21;;;;;;;73.57;37.53;;;16.20;99.90;;;;;;5052531;28;20025;-86
2021/06/06 07:26:49;;;;;;;71.50;36.85;;;16.10;99.90;;;;;;5052485;28;20025;-86
2021/06/06 07:29:17;;;;;;;73.40;35.67;;;16.20;99.90;;;;;;5050689;28;20025;-86
2021/06/06 07:31:45;;;;;;;78.47;37.92;;;16.20;99.90;;;;;;5051951;28;20086;-86
2021/06/06 07:34:12;;;;;;;72.78;35.58;;;16.10;99.90;;;;;;5051114;28;20083;-86
2021/06/06 07:36:38;;;;;;;69.65;35.53;;;16.10;99.90;;;;;;5050967;28;20485;-86
2021/06/06 07:39:04;;;;;;;71.07;34.78;;;16.10;99.90;;;;;;5051596;28;20068;-86
2021/06/06 07:41:30;;;;;;;66.97;34.05;;;16.00;99.90;;;;;;5052144;28;20021;-85
2021/06/06 07:43:57;;;;;;;68.50;34.63;;;16.10;99.90;;;;;;5050884;28;20025;-86
2021/06/06 07:46:23;;;;;;;67.97;34.70;;;16.10;99.90;;;;;;5050834;28;20032;-86
2021/06/06 07:48:49;;;;;;;68.95;35.03;;;16.10;99.90;;;;;;5050271;28;20592;-86
2021/06/06 07:51:14;;;;;;;70.38;36.00;;;16.10;99.90;;;;;;5050494;28;20219;-85
2021/06/06 07:53:40;;;;;;;61.33;32.22;;;16.10;99.90;;;;;;5050804;28;20079;-86
2021/06/06 07:56:06;;;;;;;59.67;31.38;;;16.10;99.90;;;;;;5052119;28;20489;-86
2021/06/06 07:58:38;;;;;;;61.42;32.33;;;16.20;99.90;;;;;;5050769;28;20029;-86
2021/06/06 08:01:05;;;;;;;58.85;31.38;;;16.20;99.90;;;;;;5051299;28;20025;-86
2021/06/06 08:03:31;;;;;;;56.00;31.50;;;16.30;99.90;;;;;;5051958;28;20025;-85
2021/06/06 08:05:59;;;;;;;53.58;30.92;;;16.20;99.90;;;;;;5050658;28;20032;-86
2021/06/06 08:08:25;;;;;;;57.35;31.45;;;16.10;99.90;;;;;;5051961;28;20057;-86
2021/06/06 08:10:54;;;;;;;49.45;28.80;;;16.10;99.90;;;;;;5051250;28;20021;-86
2021/06/06 08:13:21;;;;;;;53.97;28.50;;;16.20;99.90;;;;;;5051776;28;20366;-85
2021/06/06 08:15:47;;;;;;;52.47;29.23;;;16.30;99.90;;;;;;5050574;28;20036;-86
2021/06/06 08:18:17;;;;;;;56.22;29.58;;;16.30;99.90;;;;;;5051706;28;20036;-86
2021/06/06 08:20:52;;;;;;;45.58;26.88;;;16.20;99.90;;;;;;5049997;28;20103;-86
2021/06/06 08:23:19;;;;;;;46.75;27.58;;;16.30;99.90;;;;;;5050458;28;20162;-86
2021/06/06 08:25:46;;;;;;;55.08;30.63;;;16.20;99.90;;;;;;5052406;28;20021;-86
2021/06/06 08:28:13;;;;;;;61.50;33.53;;;16.20;99.90;;;;;;5051754;28;20400;-86
2021/06/06 08:30:48;;;;;;;57.97;32.78;;;16.20;99.90;;;;;;5049720;28;20021;-86
2021/06/06 08:33:14;;;;;;;54.65;29.70;;;16.20;99.90;;;;;;5051802;28;20021;-86
2021/06/06 08:35:41;;;;;;;50.53;29.35;;;16.30;99.90;;;;;;5050341;28;20040;-86
2021/06/06 08:38:07;;;;;;;53.22;29.58;;;16.30;99.90;;;;;;5050361;28;20540;-86
2021/06/06 08:40:51;;;;;;;53.55;30.05;;;16.40;99.90;;;;;;5051074;28;20041;-87
2021/06/06 08:43:18;;;;;;;60.00;31.48;;;16.40;99.90;;;;;;5067008;28;20025;-87
2021/06/06 08:45:54;;;;;;;55.13;30.73;;;16.30;99.90;;;;;;5050414;28;20025;-86
2021/06/06 08:48:21;;;;;;;56.63;30.88;;;16.30;99.90;;;;;;5051443;28;20498;-86
2021/06/06 08:50:55;;;;;;;56.38;31.20;;;16.30;99.90;;;;;;5051180;28;20113;-86
2021/06/06 08:53:32;;;;;;;61.40;32.15;;;16.40;99.90;;;;;;5050162;28;20031;-87
2021/06/06 08:56:15;;;;;;;64.25;34.65;;;16.30;99.90;;;;;;5050368;28;20025;-86
2021/06/06 08:58:49;;;;;;;60.30;32.10;;;16.30;99.90;;;;;;5050159;28;20405;-87
2021/06/06 09:01:25;;;;;;;58.38;31.92;;;16.30;99.90;;;;;;5050016;28;20430;-87
2021/06/06 09:03:55;;;;;;;55.60;30.45;;;16.40;99.90;;;;;;5050159;28;20031;-87
2021/06/06 09:06:32;;;;;;;55.15;31.10;;;16.40;99.90;;;;;;5050190;28;20025;-86
2021/06/06 09:08:59;;;;;;;54.90;30.40;;;16.40;99.90;;;;;;5066293;28;20042;-86
2021/06/06 09:11:29;;;;;;;54.28;31.45;;;16.40;99.90;;;;;;5049833;28;20074;-86
2021/06/06 09:13:56;;;;;;;55.00;30.55;;;16.50;99.90;;;;;;5050153;28;20025;-86
2021/06/06 09:16:53;;;;;;;52.40;30.15;;;16.50;99.90;;;;;;5050072;28;20056;-86
2021/06/06 09:19:19;;;;;;;54.03;30.92;;;16.50;99.90;;;;;;5043742;28;20140;-86
2021/06/06 09:22:02;;;;;;;64.45;35.38;;;16.50;99.90;;;;;;5051206;28;20520;-86
2021/06/06 09:24:37;;;;;;;54.28;31.13;;;16.50;99.90;;;;;;5049935;28;20482;-86
2021/06/06 09:27:10;;;;;;;53.65;30.98;;;16.60;99.90;;;;;;5053249;28;20029;-86
2021/06/06 09:29:36;;;;;;;52.97;30.25;;;16.60;99.90;;;;;;5069635;28;20029;-86
2021/06/06 09:32:19;;;;;;;57.20;31.88;;;16.70;99.90;;;;;;5053376;28;20135;-86
2021/06/06 09:34:55;;;;;;;60.95;32.78;;;16.60;99.90;;;;;;5054772;28;20486;-86
2021/06/06 09:37:25;;;;;;;59.45;33.58;;;16.70;99.90;;;;;;5070178;28;20466;-87
2021/06/06 09:40:14;;;;;;;61.80;34.70;;;16.60;99.90;;;;;;5054194;28;20037;-87
2021/06/06 09:42:40;;;;;;;61.60;34.53;;;16.50;99.90;;;;;;5053141;28;20025;-86
2021/06/06 09:45:19;;;;;;;56.33;32.33;;;16.60;99.90;;;;;;5070124;28;20497;-87
2021/06/06 09:48:18;;;;;;;56.80;31.08;;;16.60;99.90;;;;;;5053216;28;20125;-87
2021/06/06 09:50:48;;;;;;;50.50;29.75;;;16.50;99.90;;;;;;5050796;28;20048;-86
2021/06/06 09:53:13;;;;;;;54.17;30.55;;;16.60;99.90;;;;;;5053134;28;20053;-87
2021/06/06 09:55:39;;;;;;;53.75;30.52;;;16.50;99.90;;;;;;5068993;28;20068;-86
2021/06/06 09:58:23;;;;;;;51.10;29.67;;;16.50;99.90;;;;;;5052820;28;20032;-87
2021/06/06 10:00:52;;;;;;;47.97;27.63;;;16.60;99.90;;;;;;5053920;28;20021;-87
2021/06/06 10:03:31;;;;;;;45.88;26.60;;;16.60;99.90;;;;;;5052976;28;20017;-86
2021/06/06 10:06:37;;;;;;;41.90;25.50;;;16.70;99.90;;;;;;5069607;28;20033;-86
2021/06/06 10:09:19;;;;;;;43.83;25.27;;;16.70;99.90;;;;;;5014785;28;20441;-87
2021/06/06 10:12:07;;;;;;;45.25;26.27;;;16.70;99.90;;;;;;5015391;28;20189;-86
2021/06/06 10:14:50;;;;;;;41.22;24.73;;;16.70;99.90;;;;;;5042413;28;20028;-86
2021/06/06 10:17:24;;;;;;;39.92;23.88;;;16.70;99.90;;;;;;5069403;28;20029;-86
2021/06/06 10:19:56;;;;;;;42.03;23.33;;;16.60;99.90;;;;;;5052197;28;20032;-87
2021/06/06 10:22:29;;;;;;;34.30;21.52;;;16.60;99.90;;;;;;5053784;28;20100;-86
2021/06/06 10:25:06;;;;;;;47.22;25.60;;;16.60;99.90;;;;;;5054019;28;20025;-86
2021/06/06 10:27:48;;;;;;;55.20;28.73;;;16.50;99.90;;;;;;5053978;28;20017;-86
2021/06/06 10:30:36;;;;;;;56.40;29.83;;;16.50;99.90;;;;;;5051994;28;20033;-86
2021/06/06 10:33:31;;;;;;;58.43;29.67;;;16.50;99.90;;;;;;5052823;28;20025;-87
2021/06/06 10:35:59;;;;;;;50.75;27.70;;;16.50;99.90;;;;;;5053520;28;20021;-86
2021/06/06 10:38:26;;;;;;;50.85;27.45;;;16.60;99.90;;;;;;5053045;28;20375;-86
2021/06/06 10:40:55;;;;;;;47.80;27.10;;;16.60;99.90;;;;;;5054866;28;20028;-86
2021/06/06 10:43:27;;;;;;;48.80;26.92;;;16.50;99.90;;;;;;5054814;28;20029;-87
2021/06/06 10:46:05;;;;;;;45.40;25.48;;;16.50;99.90;;;;;;5070143;28;20025;-87
2021/06/06 10:48:50;;;;;;;47.35;25.60;;;16.50;99.90;;;;;;5070866;28;20028;-86
2021/06/06 10:51:31;;;;;;;43.83;25.08;;;16.50;99.90;;;;;;5053620;28;20028;-86
2021/06/06 10:53:59;;;;;;;44.33;24.70;;;16.50;99.90;;;;;;5053352;28;20021;-86
2021/06/06 10:56:34;;;;;;;39.42;22.85;;;16.50;99.90;;;;;;5053327;28;20037;-86
2021/06/06 10:59:05;;;;;;;39.88;22.60;;;16.50;99.90;;;;;;5068049;28;20036;-86
2021/06/06 11:01:46;;;;;;;45.47;25.10;;;16.60;99.90;;;;;;5053168;28;20017;-86
2021/06/06 11:04:16;;;;;;;40.47;23.85;;;16.50;99.90;;;;;;5053354;28;20024;-86
2021/06/06 11:06:47;;;;;;;36.90;22.23;;;16.50;99.90;;;;;;5051895;28;20032;-86
2021/06/06 11:09:24;;;;;;;42.13;23.10;;;16.50;99.90;;;;;;5051298;28;20037;-86
2021/06/06 11:12:11;;;;;;;39.10;24.65;;;16.60;99.90;;;;;;5051728;28;20028;-86
2021/06/06 11:14:47;;;;;;;38.50;23.90;;;16.50;99.90;;;;;;5051574;28;20029;-86
2021/06/06 11:17:33;;;;;;;40.90;24.88;;;16.50;99.90;;;;;;5053022;28;20036;-86
2021/06/06 11:20:31;;;;;;;44.92;26.23;;;16.40;99.90;;;;;;5051070;28;20098;-86
2021/06/06 11:22:58;;;;;;;37.22;23.75;;;16.40;99.90;;;;;;5051658;28;20112;-85
2021/06/06 11:25:44;;;;;;;39.90;24.55;;;16.50;99.90;;;;;;5052629;28;20024;-85
2021/06/06 11:28:22;;;;;;;34.33;22.52;;;16.50;99.90;;;;;;5051389;28;20513;-85
2021/06/06 11:30:50;;;;;;;39.88;23.52;;;16.50;99.90;;;;;;5067410;28;20025;-85
2021/06/06 11:33:47;;;;;;;38.60;24.05;;;16.50;99.90;;;;;;5052545;28;20025;-85
2021/06/06 11:36:13;;;;;;;34.67;23.08;;;16.60;99.90;;;;;;5030621;28;20033;-85
2021/06/06 11:38:44;;;;;;;36.72;23.02;;;16.60;99.90;;;;;;5052360;28;20367;-85
2021/06/06 11:41:35;;;;;;;37.38;22.77;;;16.70;99.90;;;;;;5054286;28;20074;-86
2021/06/06 11:44:19;;;;;;;32.47;21.65;;;16.80;99.90;;;;;;5058570;28;20083;-86
2021/06/06 11:46:50;;;;;;;33.95;22.23;;;16.80;99.90;;;;;;5060877;28;20070;-86
2021/06/06 11:49:15;;;;;;;36.92;24.27;;;16.80;99.90;;;;;;5076279;28;20094;-86
2021/06/06 11:51:45;;;;;;;34.83;23.65;;;16.70;99.90;;;;;;5061296;28;20028;-86
2021/06/06 11:54:57;;;;;;;40.38;25.58;;;16.80;99.90;;;;;;5077237;28;20041;-86
2021/06/06 11:57:49;;;;;;;40.38;27.02;;;16.70;99.90;;;;;;5057508;28;20047;-86
2021/06/06 12:00:28;;;;;;;39.83;26.27;;;16.70;99.90;;;;;;5076116;28;20064;-86
2021/06/06 12:02:54;;;;;;;40.28;24.42;;;16.70;99.90;;;;;;5076736;28;20025;-86
2021/06/06 12:05:29;;;;;;;38.60;23.90;;;16.70;99.90;;;;;;5059985;28;20025;-86
2021/06/06 12:08:06;;;;;;;38.50;25.27;;;16.70;99.90;;;;;;5059741;28;20025;-86
2021/06/06 12:10:36;;;;;;;39.33;24.10;;;16.80;99.90;;;;;;5058776;28;20394;-86
2021/06/06 12:13:04;;;;;;;39.63;24.05;;;16.80;99.90;;;;;;5058895;28;20035;-86
2021/06/06 12:15:35;;;;;;;35.63;24.45;;;16.80;99.90;;;;;;5059311;28;20025;-86
2021/06/06 12:18:16;;;;;;;40.75;27.20;;;16.80;99.90;;;;;;5058581;28;20027;-86
2021/06/06 12:20:58;;;;;;;39.13;25.73;;;16.80;99.90;;;;;;5060337;28;20049;-86
2021/06/06 12:23:48;;;;;;;38.70;25.60;;;16.80;99.90;;;;;;5059220;28;20021;-86
2021/06/06 12:26:23;;;;;;;39.45;25.08;;;16.80;99.90;;;;;;5076261;28;20432;-86
2021/06/06 12:28:53;;;;;;;37.58;23.13;;;16.80;99.90;;;;;;5058428;28;20044;-87
2021/06/06 12:31:38;;;;;;;34.00;22.83;;;16.80;99.90;;;;;;5058229;28;20045;-86
2021/06/06 12:34:19;;;;;;;33.13;21.92;;;16.80;99.90;;;;;;5059397;28;20508;-86
2021/06/06 12:36:46;;;;;;;35.97;23.45;;;16.90;99.90;;;;;;5075471;28;20021;-86
2021/06/06 12:39:17;;;;;;;32.45;23.55;;;16.90;99.90;;;;;;5057998;28;20167;-86
2021/06/06 12:41:45;;;;;;;36.80;24.27;;;16.90;99.90;;;;;;5058876;28;20025;-86
2021/06/06 12:44:13;;;;;;;35.50;22.20;;;16.90;99.90;;;;;;5059011;28;20045;-87
2021/06/06 12:46:58;;;;;;;34.10;23.30;;;16.80;99.90;;;;;;5058382;28;20056;-86
2021/06/06 12:49:33;;;;;;;35.42;23.83;;;16.80;99.90;;;;;;5058920;28;20032;-86
2021/06/06 12:52:03;;;;;;;36.08;24.05;;;16.90;99.90;;;;;;5058909;28;20037;-86
2021/06/06 12:54:38;;;;;;;34.17;23.17;;;16.90;99.90;;;;;;5057736;28;20029;-86
2021/06/06 12:57:13;;;;;;;34.75;23.58;;;16.90;99.90;;;;;;5059128;28;20025;-86
2021/06/06 12:59:39;;;;;;;36.08;23.50;;;16.90;99.90;;;;;;5059894;28;20017;-86